sensor_id;sensor_type;location;lat;lon;timestamp;P1;durP1;ratioP1;P2;durP2;ratioP2
37701;SDS011;23548;51.196;6.838;2023-07-13T00:00:41;7.32;;;1.70;;
37701;SDS011;23548;51.196;6.838;2023-07-13T00:03:07;10.57;;;2.20;;
37701;SDS011;23548;51.196;6.838;2023-07-13T00:05:34;6.85;;;1.80;;
37701;SDS011;23548;51.196;6.838;2023-07-13T00:08:00;5.88;;;1.83;;
37701;SDS011;23548;51.196;6.838;2023-07-13T00:10:25;5.80;;;1.58;;
37701;SDS011;23548;51.196;6.838;2023-07-13T00:12:51;5.50;;;1.70;;
37701;SDS011;23548;51.196;6.838;2023-07-13T00:15:21;8.80;;;1.83;;
37701;SDS011;23548;51.196;6.838;2023-07-13T00:17:49;7.45;;;1.90;;
37701;SDS011;23548;51.196;6.838;2023-07-13T00:20:16;5.28;;;1.80;;
37701;SDS011;23548;51.196;6.838;2023-07-13T00:22:42;5.80;;;1.70;;
37701;SDS011;23548;51.196;6.838;2023-07-13T00:25:10;11.27;;;2.35;;
37701;SDS011;23548;51.196;6.838;2023-07-13T00:27:37;5.78;;;2.17;;
37701;SDS011;23548;51.196;6.838;2023-07-13T00:30:03;8.05;;;2.03;;
37701;SDS011;23548;51.196;6.838;2023-07-13T00:32:30;8.77;;;1.92;;
37701;SDS011;23548;51.196;6.838;2023-07-13T00:34:56;14.35;;;2.80;;
37701;SDS011;23548;51.196;6.838;2023-07-13T00:37:23;7.60;;;1.70;;
37701;SDS011;23548;51.196;6.838;2023-07-13T00:39:49;15.57;;;2.63;;
37701;SDS011;23548;51.196;6.838;2023-07-13T00:42:15;10.93;;;2.17;;
37701;SDS011;23548;51.196;6.838;2023-07-13T00:44:41;7.65;;;2.50;;
37701;SDS011;23548;51.196;6.838;2023-07-13T00:47:06;8.90;;;2.63;;
37701;SDS011;23548;51.196;6.838;2023-07-13T00:49:33;8.48;;;2.70;;
37701;SDS011;23548;51.196;6.838;2023-07-13T00:52:05;7.78;;;2.30;;
37701;SDS011;23548;51.196;6.838;2023-07-13T00:54:34;7.50;;;2.20;;
37701;SDS011;23548;51.196;6.838;2023-07-13T00:57:04;11.88;;;2.05;;
37701;SDS011;23548;51.196;6.838;2023-07-13T00:59:33;9.90;;;2.33;;
37701;SDS011;23548;51.196;6.838;2023-07-13T01:02:02;8.70;;;2.58;;
37701;SDS011;23548;51.196;6.838;2023-07-13T01:04:28;9.70;;;2.10;;
37701;SDS011;23548;51.196;6.838;2023-07-13T01:06:54;6.10;;;2.35;;
37701;SDS011;23548;51.196;6.838;2023-07-13T01:09:22;7.38;;;2.40;;
37701;SDS011;23548;51.196;6.838;2023-07-13T01:11:48;10.38;;;2.85;;
37701;SDS011;23548;51.196;6.838;2023-07-13T01:14:14;8.15;;;2.40;;
37701;SDS011;23548;51.196;6.838;2023-07-13T01:16:42;6.00;;;2.30;;
37701;SDS011;23548;51.196;6.838;2023-07-13T01:19:15;7.90;;;2.40;;
37701;SDS011;23548;51.196;6.838;2023-07-13T01:21:54;10.82;;;2.58;;
37701;SDS011;23548;51.196;6.838;2023-07-13T01:24:20;9.55;;;2.45;;
37701;SDS011;23548;51.196;6.838;2023-07-13T01:26:46;6.75;;;2.50;;
37701;SDS011;23548;51.196;6.838;2023-07-13T01:29:12;7.68;;;2.20;;
37701;SDS011;23548;51.196;6.838;2023-07-13T01:31:37;6.65;;;2.53;;
37701;SDS011;23548;51.196;6.838;2023-07-13T01:34:03;12.52;;;3.03;;
37701;SDS011;23548;51.196;6.838;2023-07-13T01:36:29;6.47;;;2.65;;
37701;SDS011;23548;51.196;6.838;2023-07-13T01:38:56;5.93;;;2.80;;
37701;SDS011;23548;51.196;6.838;2023-07-13T01:41:22;10.23;;;2.88;;
37701;SDS011;23548;51.196;6.838;2023-07-13T01:43:47;7.53;;;2.50;;
37701;SDS011;23548;51.196;6.838;2023-07-13T01:46:13;3.90;;;1.90;;
37701;SDS011;23548;51.196;6.838;2023-07-13T01:48:39;7.28;;;2.50;;
37701;SDS011;23548;51.196;6.838;2023-07-13T01:51:04;8.15;;;2.55;;
37701;SDS011;23548;51.196;6.838;2023-07-13T01:53:30;9.25;;;2.42;;
37701;SDS011;23548;51.196;6.838;2023-07-13T01:55:56;9.30;;;2.33;;
37701;SDS011;23548;51.196;6.838;2023-07-13T01:58:21;5.00;;;1.60;;
37701;SDS011;23548;51.196;6.838;2023-07-13T02:00:48;4.25;;;1.75;;
37701;SDS011;23548;51.196;6.838;2023-07-13T02:03:15;10.95;;;2.45;;
37701;SDS011;23548;51.196;6.838;2023-07-13T02:05:43;8.05;;;2.45;;
37701;SDS011;23548;51.196;6.838;2023-07-13T02:08:09;9.85;;;2.38;;
37701;SDS011;23548;51.196;6.838;2023-07-13T02:10:35;6.90;;;2.40;;
37701;SDS011;23548;51.196;6.838;2023-07-13T02:13:03;6.72;;;2.47;;
37701;SDS011;23548;51.196;6.838;2023-07-13T02:15:31;9.45;;;2.47;;
37701;SDS011;23548;51.196;6.838;2023-07-13T02:17:56;10.02;;;2.53;;
37701;SDS011;23548;51.196;6.838;2023-07-13T02:20:23;7.10;;;2.50;;
37701;SDS011;23548;51.196;6.838;2023-07-13T02:22:51;10.18;;;3.33;;
37701;SDS011;23548;51.196;6.838;2023-07-13T02:25:17;9.38;;;2.75;;
37701;SDS011;23548;51.196;6.838;2023-07-13T02:27:42;16.05;;;3.42;;
37701;SDS011;23548;51.196;6.838;2023-07-13T02:30:08;7.75;;;2.83;;
37701;SDS011;23548;51.196;6.838;2023-07-13T02:32:35;9.13;;;2.95;;
37701;SDS011;23548;51.196;6.838;2023-07-13T02:35:01;7.60;;;2.60;;
37701;SDS011;23548;51.196;6.838;2023-07-13T02:37:27;7.32;;;2.60;;
37701;SDS011;23548;51.196;6.838;2023-07-13T02:39:53;7.07;;;2.65;;
37701;SDS011;23548;51.196;6.838;2023-07-13T02:42:19;12.35;;;3.38;;
37701;SDS011;23548;51.196;6.838;2023-07-13T02:44:45;5.05;;;2.38;;
37701;SDS011;23548;51.196;6.838;2023-07-13T02:47:11;5.50;;;2.78;;
37701;SDS011;23548;51.196;6.838;2023-07-13T02:49:38;10.23;;;2.70;;
37701;SDS011;23548;51.196;6.838;2023-07-13T02:52:03;12.02;;;3.58;;
37701;SDS011;23548;51.196;6.838;2023-07-13T02:54:29;8.40;;;2.50;;
37701;SDS011;23548;51.196;6.838;2023-07-13T02:56:55;8.00;;;2.63;;
37701;SDS011;23548;51.196;6.838;2023-07-13T02:59:21;7.68;;;2.58;;
37701;SDS011;23548;51.196;6.838;2023-07-13T03:01:46;11.48;;;2.80;;
37701;SDS011;23548;51.196;6.838;2023-07-13T03:04:12;6.18;;;2.83;;
37701;SDS011;23548;51.196;6.838;2023-07-13T03:06:38;10.25;;;3.25;;
37701;SDS011;23548;51.196;6.838;2023-07-13T03:09:04;12.15;;;2.58;;
37701;SDS011;23548;51.196;6.838;2023-07-13T03:11:30;7.13;;;2.85;;
37701;SDS011;23548;51.196;6.838;2023-07-13T03:13:56;6.43;;;2.78;;
37701;SDS011;23548;51.196;6.838;2023-07-13T03:16:22;7.32;;;2.88;;
37701;SDS011;23548;51.196;6.838;2023-07-13T03:18:48;11.48;;;3.10;;
37701;SDS011;23548;51.196;6.838;2023-07-13T03:21:14;10.05;;;3.33;;
37701;SDS011;23548;51.196;6.838;2023-07-13T03:23:40;8.02;;;2.60;;
37701;SDS011;23548;51.196;6.838;2023-07-13T03:28:58;9.40;;;2.90;;
37701;SDS011;23548;51.196;6.838;2023-07-13T03:31:27;9.65;;;3.47;;
37701;SDS011;23548;51.196;6.838;2023-07-13T03:33:54;10.40;;;3.05;;
37701;SDS011;23548;51.196;6.838;2023-07-13T03:36:22;10.00;;;2.88;;
37701;SDS011;23548;51.196;6.838;2023-07-13T03:38:51;5.63;;;2.05;;
37701;SDS011;23548;51.196;6.838;2023-07-13T03:41:19;6.25;;;2.67;;
37701;SDS011;23548;51.196;6.838;2023-07-13T03:43:45;5.60;;;2.42;;
37701;SDS011;23548;51.196;6.838;2023-07-13T03:46:13;8.95;;;2.53;;
37701;SDS011;23548;51.196;6.838;2023-07-13T03:48:40;7.50;;;2.40;;
37701;SDS011;23548;51.196;6.838;2023-07-13T03:51:08;10.43;;;2.75;;
37701;SDS011;23548;51.196;6.838;2023-07-13T03:53:38;6.63;;;2.65;;
37701;SDS011;23548;51.196;6.838;2023-07-13T03:56:06;9.38;;;3.25;;
37701;SDS011;23548;51.196;6.838;2023-07-13T03:58:33;10.07;;;2.30;;
37701;SDS011;23548;51.196;6.838;2023-07-13T04:01:00;9.32;;;2.33;;
37701;SDS011;23548;51.196;6.838;2023-07-13T04:03:27;8.70;;;2.58;;
37701;SDS011;23548;51.196;6.838;2023-07-13T04:05:57;11.88;;;3.08;;
37701;SDS011;23548;51.196;6.838;2023-07-13T04:08:28;5.07;;;2.30;;
37701;SDS011;23548;51.196;6.838;2023-07-13T04:10:55;10.18;;;2.58;;
37701;SDS011;23548;51.196;6.838;2023-07-13T04:13:21;13.07;;;2.70;;
37701;SDS011;23548;51.196;6.838;2023-07-13T04:15:48;9.95;;;2.45;;
37701;SDS011;23548;51.196;6.838;2023-07-13T04:18:14;9.50;;;2.00;;
37701;SDS011;23548;51.196;6.838;2023-07-13T04:20:39;6.13;;;2.15;;
37701;SDS011;23548;51.196;6.838;2023-07-13T04:23:05;5.35;;;2.20;;
37701;SDS011;23548;51.196;6.838;2023-07-13T04:25:31;12.27;;;2.33;;
37701;SDS011;23548;51.196;6.838;2023-07-13T04:27:57;8.20;;;2.58;;
37701;SDS011;23548;51.196;6.838;2023-07-13T04:30:22;8.65;;;2.78;;
37701;SDS011;23548;51.196;6.838;2023-07-13T04:32:50;10.63;;;2.58;;
37701;SDS011;23548;51.196;6.838;2023-07-13T04:35:17;7.97;;;2.70;;
37701;SDS011;23548;51.196;6.838;2023-07-13T04:37:46;5.53;;;2.45;;
37701;SDS011;23548;51.196;6.838;2023-07-13T04:40:12;11.48;;;2.75;;
37701;SDS011;23548;51.196;6.838;2023-07-13T04:42:38;8.38;;;3.17;;
37701;SDS011;23548;51.196;6.838;2023-07-13T04:45:05;10.55;;;2.50;;
37701;SDS011;23548;51.196;6.838;2023-07-13T04:47:32;10.73;;;2.72;;
37701;SDS011;23548;51.196;6.838;2023-07-13T04:49:58;5.28;;;2.42;;
37701;SDS011;23548;51.196;6.838;2023-07-13T04:52:23;9.15;;;2.97;;
37701;SDS011;23548;51.196;6.838;2023-07-13T04:54:49;12.07;;;3.20;;
37701;SDS011;23548;51.196;6.838;2023-07-13T04:57:15;10.85;;;2.72;;
37701;SDS011;23548;51.196;6.838;2023-07-13T04:59:41;9.80;;;2.80;;
37701;SDS011;23548;51.196;6.838;2023-07-13T05:02:07;7.32;;;3.00;;
37701;SDS011;23548;51.196;6.838;2023-07-13T05:04:32;6.32;;;2.50;;
37701;SDS011;23548;51.196;6.838;2023-07-13T05:06:58;8.23;;;2.78;;
37701;SDS011;23548;51.196;6.838;2023-07-13T05:09:25;12.73;;;3.40;;
37701;SDS011;23548;51.196;6.838;2023-07-13T05:11:51;12.82;;;3.22;;
37701;SDS011;23548;51.196;6.838;2023-07-13T05:14:17;8.18;;;2.88;;
37701;SDS011;23548;51.196;6.838;2023-07-13T05:16:42;12.93;;;3.67;;
37701;SDS011;23548;51.196;6.838;2023-07-13T05:19:09;9.32;;;3.10;;
37701;SDS011;23548;51.196;6.838;2023-07-13T05:21:35;8.10;;;3.13;;
37701;SDS011;23548;51.196;6.838;2023-07-13T05:24:01;10.45;;;2.80;;
37701;SDS011;23548;51.196;6.838;2023-07-13T05:26:26;8.40;;;2.40;;
37701;SDS011;23548;51.196;6.838;2023-07-13T05:28:52;12.98;;;3.10;;
37701;SDS011;23548;51.196;6.838;2023-07-13T05:31:18;7.28;;;2.65;;
37701;SDS011;23548;51.196;6.838;2023-07-13T05:33:44;9.30;;;2.90;;
37701;SDS011;23548;51.196;6.838;2023-07-13T05:36:09;8.95;;;2.90;;
37701;SDS011;23548;51.196;6.838;2023-07-13T05:38:35;10.43;;;2.95;;
37701;SDS011;23548;51.196;6.838;2023-07-13T05:41:01;12.98;;;2.80;;
37701;SDS011;23548;51.196;6.838;2023-07-13T05:43:27;10.65;;;2.83;;
37701;SDS011;23548;51.196;6.838;2023-07-13T05:45:53;14.32;;;2.75;;
37701;SDS011;23548;51.196;6.838;2023-07-13T05:48:20;12.02;;;3.22;;
37701;SDS011;23548;51.196;6.838;2023-07-13T05:50:45;12.88;;;2.58;;
37701;SDS011;23548;51.196;6.838;2023-07-13T05:53:11;8.25;;;2.70;;
37701;SDS011;23548;51.196;6.838;2023-07-13T05:55:44;14.68;;;2.53;;
37701;SDS011;23548;51.196;6.838;2023-07-13T05:58:20;10.45;;;2.90;;
37701;SDS011;23548;51.196;6.838;2023-07-13T06:00:46;11.55;;;2.53;;
37701;SDS011;23548;51.196;6.838;2023-07-13T06:03:12;11.52;;;2.78;;
37701;SDS011;23548;51.196;6.838;2023-07-13T06:05:38;9.48;;;2.80;;
37701;SDS011;23548;51.196;6.838;2023-07-13T06:08:04;9.50;;;3.22;;
37701;SDS011;23548;51.196;6.838;2023-07-13T06:10:32;11.68;;;2.90;;
37701;SDS011;23548;51.196;6.838;2023-07-13T06:12:59;14.32;;;3.47;;
37701;SDS011;23548;51.196;6.838;2023-07-13T06:15:25;8.93;;;2.90;;
37701;SDS011;23548;51.196;6.838;2023-07-13T06:17:50;10.57;;;2.97;;
37701;SDS011;23548;51.196;6.838;2023-07-13T06:20:16;11.73;;;3.05;;
37701;SDS011;23548;51.196;6.838;2023-07-13T06:22:42;10.27;;;2.95;;
37701;SDS011;23548;51.196;6.838;2023-07-13T06:25:08;9.25;;;3.03;;
37701;SDS011;23548;51.196;6.838;2023-07-13T06:27:34;13.57;;;3.25;;
37701;SDS011;23548;51.196;6.838;2023-07-13T06:30:00;11.98;;;3.47;;
37701;SDS011;23548;51.196;6.838;2023-07-13T06:32:26;12.65;;;3.00;;
37701;SDS011;23548;51.196;6.838;2023-07-13T06:34:52;10.55;;;2.92;;
37701;SDS011;23548;51.196;6.838;2023-07-13T06:37:18;10.88;;;3.25;;
37701;SDS011;23548;51.196;6.838;2023-07-13T06:39:44;16.13;;;3.67;;
37701;SDS011;23548;51.196;6.838;2023-07-13T06:42:10;13.70;;;3.92;;
37701;SDS011;23548;51.196;6.838;2023-07-13T06:44:36;14.02;;;3.42;;
37701;SDS011;23548;51.196;6.838;2023-07-13T06:47:02;9.43;;;3.38;;
37701;SDS011;23548;51.196;6.838;2023-07-13T06:49:27;11.90;;;3.50;;
37701;SDS011;23548;51.196;6.838;2023-07-13T06:51:53;13.57;;;3.53;;
37701;SDS011;23548;51.196;6.838;2023-07-13T06:54:19;15.90;;;3.50;;
37701;SDS011;23548;51.196;6.838;2023-07-13T06:56:44;8.98;;;3.20;;
37701;SDS011;23548;51.196;6.838;2023-07-13T06:59:10;17.40;;;4.28;;
37701;SDS011;23548;51.196;6.838;2023-07-13T07:01:36;11.23;;;3.03;;
37701;SDS011;23548;51.196;6.838;2023-07-13T07:04:02;16.60;;;3.38;;
37701;SDS011;23548;51.196;6.838;2023-07-13T07:06:28;5.63;;;2.92;;
37701;SDS011;23548;51.196;6.838;2023-07-13T07:08:54;11.50;;;3.88;;
37701;SDS011;23548;51.196;6.838;2023-07-13T07:11:23;8.23;;;3.00;;
37701;SDS011;23548;51.196;6.838;2023-07-13T07:13:51;13.57;;;3.38;;
37701;SDS011;23548;51.196;6.838;2023-07-13T07:16:18;10.05;;;3.10;;
37701;SDS011;23548;51.196;6.838;2023-07-13T07:18:44;12.85;;;3.20;;
37701;SDS011;23548;51.196;6.838;2023-07-13T07:21:11;12.55;;;3.28;;
37701;SDS011;23548;51.196;6.838;2023-07-13T07:23:37;11.05;;;3.80;;
37701;SDS011;23548;51.196;6.838;2023-07-13T07:26:03;10.68;;;3.10;;
37701;SDS011;23548;51.196;6.838;2023-07-13T07:28:29;12.93;;;3.40;;
37701;SDS011;23548;51.196;6.838;2023-07-13T07:30:56;10.38;;;3.30;;
37701;SDS011;23548;51.196;6.838;2023-07-13T07:33:24;10.23;;;3.40;;
37701;SDS011;23548;51.196;6.838;2023-07-13T07:35:50;13.07;;;3.28;;
37701;SDS011;23548;51.196;6.838;2023-07-13T07:38:16;10.80;;;3.58;;
37701;SDS011;23548;51.196;6.838;2023-07-13T07:40:42;9.60;;;3.45;;
37701;SDS011;23548;51.196;6.838;2023-07-13T07:43:08;13.40;;;3.80;;
37701;SDS011;23548;51.196;6.838;2023-07-13T07:45:35;11.45;;;3.53;;
37701;SDS011;23548;51.196;6.838;2023-07-13T07:48:03;11.90;;;3.83;;
37701;SDS011;23548;51.196;6.838;2023-07-13T07:50:29;10.10;;;3.75;;
37701;SDS011;23548;51.196;6.838;2023-07-13T07:52:55;12.60;;;3.63;;
37701;SDS011;23548;51.196;6.838;2023-07-13T07:55:21;13.65;;;3.10;;
37701;SDS011;23548;51.196;6.838;2023-07-13T07:57:47;8.75;;;3.08;;
37701;SDS011;23548;51.196;6.838;2023-07-13T08:00:14;9.75;;;3.92;;
37701;SDS011;23548;51.196;6.838;2023-07-13T08:02:40;11.80;;;3.40;;
37701;SDS011;23548;51.196;6.838;2023-07-13T08:05:07;13.27;;;3.40;;
37701;SDS011;23548;51.196;6.838;2023-07-13T08:07:34;10.88;;;3.33;;
37701;SDS011;23548;51.196;6.838;2023-07-13T08:10:00;13.27;;;3.92;;
37701;SDS011;23548;51.196;6.838;2023-07-13T08:12:26;12.95;;;3.53;;
37701;SDS011;23548;51.196;6.838;2023-07-13T08:14:52;9.23;;;3.35;;
37701;SDS011;23548;51.196;6.838;2023-07-13T08:17:23;10.73;;;3.22;;
37701;SDS011;23548;51.196;6.838;2023-07-13T08:19:49;18.42;;;3.15;;
37701;SDS011;23548;51.196;6.838;2023-07-13T08:22:15;9.98;;;3.42;;
37701;SDS011;23548;51.196;6.838;2023-07-13T08:24:41;10.30;;;3.95;;
37701;SDS011;23548;51.196;6.838;2023-07-13T08:27:10;17.38;;;3.78;;
37701;SDS011;23548;51.196;6.838;2023-07-13T08:29:39;7.72;;;2.80;;
37701;SDS011;23548;51.196;6.838;2023-07-13T08:32:05;13.07;;;3.30;;
37701;SDS011;23548;51.196;6.838;2023-07-13T08:34:35;13.15;;;3.67;;
37701;SDS011;23548;51.196;6.838;2023-07-13T08:37:02;11.98;;;3.17;;
37701;SDS011;23548;51.196;6.838;2023-07-13T08:39:28;11.90;;;3.30;;
37701;SDS011;23548;51.196;6.838;2023-07-13T08:41:56;14.05;;;3.88;;
37701;SDS011;23548;51.196;6.838;2023-07-13T08:47:26;13.35;;;3.10;;
37701;SDS011;23548;51.196;6.838;2023-07-13T08:49:56;12.07;;;3.33;;
37701;SDS011;23548;51.196;6.838;2023-07-13T08:52:36;16.20;;;3.75;;
37701;SDS011;23548;51.196;6.838;2023-07-13T08:55:05;11.63;;;3.50;;
37701;SDS011;23548;51.196;6.838;2023-07-13T08:57:43;13.88;;;3.47;;
37701;SDS011;23548;51.196;6.838;2023-07-13T09:00:12;22.50;;;8.90;;
37701;SDS011;23548;51.196;6.838;2023-07-13T09:02:46;10.95;;;3.42;;
37701;SDS011;23548;51.196;6.838;2023-07-13T09:05:29;13.40;;;3.58;;
37701;SDS011;23548;51.196;6.838;2023-07-13T09:10:39;10.63;;;3.30;;
37701;SDS011;23548;51.196;6.838;2023-07-13T09:15:46;14.95;;;3.28;;
37701;SDS011;23548;51.196;6.838;2023-07-13T09:18:14;13.30;;;3.63;;
37701;SDS011;23548;51.196;6.838;2023-07-13T09:23:39;12.05;;;3.63;;
37701;SDS011;23548;51.196;6.838;2023-07-13T09:28:59;8.75;;;3.00;;
37701;SDS011;23548;51.196;6.838;2023-07-13T09:31:37;11.55;;;3.65;;
37701;SDS011;23548;51.196;6.838;2023-07-13T09:34:12;13.50;;;3.17;;
37701;SDS011;23548;51.196;6.838;2023-07-13T09:36:38;9.93;;;3.20;;
37701;SDS011;23548;51.196;6.838;2023-07-13T09:44:15;10.45;;;3.17;;
37701;SDS011;23548;51.196;6.838;2023-07-13T09:46:46;8.57;;;2.63;;
37701;SDS011;23548;51.196;6.838;2023-07-13T09:49:40;17.23;;;3.33;;
37701;SDS011;23548;51.196;6.838;2023-07-13T09:52:10;13.88;;;3.40;;
37701;SDS011;23548;51.196;6.838;2023-07-13T09:54:39;10.00;;;2.65;;
37701;SDS011;23548;51.196;6.838;2023-07-13T09:57:13;12.13;;;3.17;;
37701;SDS011;23548;51.196;6.838;2023-07-13T09:59:43;8.93;;;2.95;;
37701;SDS011;23548;51.196;6.838;2023-07-13T10:02:24;8.43;;;3.13;;
37701;SDS011;23548;51.196;6.838;2023-07-13T10:07:24;9.60;;;2.78;;
37701;SDS011;23548;51.196;6.838;2023-07-13T10:09:53;13.52;;;2.90;;
37701;SDS011;23548;51.196;6.838;2023-07-13T10:12:20;13.90;;;2.70;;
37701;SDS011;23548;51.196;6.838;2023-07-13T10:14:48;9.50;;;2.40;;
37701;SDS011;23548;51.196;6.838;2023-07-13T10:17:18;9.02;;;2.90;;
37701;SDS011;23548;51.196;6.838;2023-07-13T10:19:51;9.55;;;2.83;;
37701;SDS011;23548;51.196;6.838;2023-07-13T10:25:20;8.75;;;2.67;;
37701;SDS011;23548;51.196;6.838;2023-07-13T10:27:51;12.55;;;2.58;;
37701;SDS011;23548;51.196;6.838;2023-07-13T10:30:27;10.13;;;2.65;;
37701;SDS011;23548;51.196;6.838;2023-07-13T10:32:58;9.48;;;2.50;;
37701;SDS011;23548;51.196;6.838;2023-07-13T10:35:27;7.35;;;2.17;;
37701;SDS011;23548;51.196;6.838;2023-07-13T10:38:03;5.97;;;2.55;;
37701;SDS011;23548;51.196;6.838;2023-07-13T10:40:37;9.80;;;2.88;;
37701;SDS011;23548;51.196;6.838;2023-07-13T10:43:16;7.32;;;2.50;;
37701;SDS011;23548;51.196;6.838;2023-07-13T10:45:47;11.02;;;2.70;;
37701;SDS011;23548;51.196;6.838;2023-07-13T10:48:16;7.80;;;2.90;;
37701;SDS011;23548;51.196;6.838;2023-07-13T10:50:45;11.55;;;3.22;;
37701;SDS011;23548;51.196;6.838;2023-07-13T10:58:29;11.05;;;2.92;;
37701;SDS011;23548;51.196;6.838;2023-07-13T11:01:03;9.95;;;2.67;;
37701;SDS011;23548;51.196;6.838;2023-07-13T11:03:33;11.05;;;2.60;;
37701;SDS011;23548;51.196;6.838;2023-07-13T11:06:05;10.52;;;3.25;;
37701;SDS011;23548;51.196;6.838;2023-07-13T11:18:48;7.82;;;2.08;;
37701;SDS011;23548;51.196;6.838;2023-07-13T11:21:32;7.22;;;2.50;;
37701;SDS011;23548;51.196;6.838;2023-07-13T11:31:43;6.72;;;2.30;;
37701;SDS011;23548;51.196;6.838;2023-07-13T11:34:18;6.18;;;2.47;;
37701;SDS011;23548;51.196;6.838;2023-07-13T11:36:59;8.20;;;2.92;;
37701;SDS011;23548;51.196;6.838;2023-07-13T11:39:29;6.18;;;2.15;;
37701;SDS011;23548;51.196;6.838;2023-07-13T11:42:05;7.93;;;2.47;;
37701;SDS011;23548;51.196;6.838;2023-07-13T11:44:41;6.75;;;2.22;;
37701;SDS011;23548;51.196;6.838;2023-07-13T11:47:10;4.68;;;2.72;;
37701;SDS011;23548;51.196;6.838;2023-07-13T11:49:45;3.67;;;1.98;;
37701;SDS011;23548;51.196;6.838;2023-07-13T11:52:17;6.78;;;2.63;;
37701;SDS011;23548;51.196;6.838;2023-07-13T11:54:55;11.10;;;2.78;;
37701;SDS011;23548;51.196;6.838;2023-07-13T11:57:32;10.32;;;2.30;;
37701;SDS011;23548;51.196;6.838;2023-07-13T12:00:01;9.93;;;2.60;;
37701;SDS011;23548;51.196;6.838;2023-07-13T12:02:32;5.90;;;2.10;;
37701;SDS011;23548;51.196;6.838;2023-07-13T12:05:03;5.28;;;2.35;;
37701;SDS011;23548;51.196;6.838;2023-07-13T12:07:31;4.57;;;2.05;;
37701;SDS011;23548;51.196;6.838;2023-07-13T12:10:02;8.18;;;2.30;;
37701;SDS011;23548;51.196;6.838;2023-07-13T12:12:36;5.63;;;2.05;;
37701;SDS011;23548;51.196;6.838;2023-07-13T12:15:08;7.43;;;2.33;;
37701;SDS011;23548;51.196;6.838;2023-07-13T12:17:36;6.05;;;2.13;;
37701;SDS011;23548;51.196;6.838;2023-07-13T12:20:04;6.63;;;2.15;;
37701;SDS011;23548;51.196;6.838;2023-07-13T12:22:52;6.13;;;2.08;;
37701;SDS011;23548;51.196;6.838;2023-07-13T12:25:18;5.72;;;2.10;;
37701;SDS011;23548;51.196;6.838;2023-07-13T12:27:49;6.78;;;1.75;;
37701;SDS011;23548;51.196;6.838;2023-07-13T12:33:01;7.15;;;2.17;;
37701;SDS011;23548;51.196;6.838;2023-07-13T12:35:39;11.90;;;2.95;;
37701;SDS011;23548;51.196;6.838;2023-07-13T12:38:17;9.45;;;2.10;;
37701;SDS011;23548;51.196;6.838;2023-07-13T12:40:46;5.90;;;1.80;;
37701;SDS011;23548;51.196;6.838;2023-07-13T12:43:15;7.35;;;1.70;;
37701;SDS011;23548;51.196;6.838;2023-07-13T12:48:24;5.13;;;1.88;;
37701;SDS011;23548;51.196;6.838;2023-07-13T12:50:50;2.55;;;1.30;;
37701;SDS011;23548;51.196;6.838;2023-07-13T12:53:21;5.97;;;1.77;;
37701;SDS011;23548;51.196;6.838;2023-07-13T12:55:49;4.97;;;1.33;;
37701;SDS011;23548;51.196;6.838;2023-07-13T12:58:22;3.30;;;1.65;;
37701;SDS011;23548;51.196;6.838;2023-07-13T13:00:54;8.48;;;2.05;;
37701;SDS011;23548;51.196;6.838;2023-07-13T13:05:59;5.35;;;1.50;;
37701;SDS011;23548;51.196;6.838;2023-07-13T13:08:32;5.55;;;1.70;;
37701;SDS011;23548;51.196;6.838;2023-07-13T13:10:59;8.32;;;1.85;;
37701;SDS011;23548;51.196;6.838;2023-07-13T13:13:25;6.03;;;1.83;;
37701;SDS011;23548;51.196;6.838;2023-07-13T13:15:51;9.52;;;2.28;;
37701;SDS011;23548;51.196;6.838;2023-07-13T13:18:21;8.80;;;1.80;;
37701;SDS011;23548;51.196;6.838;2023-07-13T13:20:49;4.20;;;1.80;;
37701;SDS011;23548;51.196;6.838;2023-07-13T13:23:16;2.75;;;1.52;;
37701;SDS011;23548;51.196;6.838;2023-07-13T13:25:48;7.95;;;1.67;;
37701;SDS011;23548;51.196;6.838;2023-07-13T13:28:16;7.57;;;1.80;;
37701;SDS011;23548;51.196;6.838;2023-07-13T13:30:44;4.20;;;1.80;;
37701;SDS011;23548;51.196;6.838;2023-07-13T13:33:13;6.88;;;1.80;;
37701;SDS011;23548;51.196;6.838;2023-07-13T13:35:41;5.30;;;1.80;;
37701;SDS011;23548;51.196;6.838;2023-07-13T13:38:12;7.38;;;2.10;;
37701;SDS011;23548;51.196;6.838;2023-07-13T13:40:39;5.47;;;1.65;;
37701;SDS011;23548;51.196;6.838;2023-07-13T13:43:21;6.93;;;1.88;;
37701;SDS011;23548;51.196;6.838;2023-07-13T13:45:51;8.38;;;2.25;;
37701;SDS011;23548;51.196;6.838;2023-07-13T13:48:18;6.97;;;2.00;;
37701;SDS011;23548;51.196;6.838;2023-07-13T13:50:46;7.45;;;1.80;;
37701;SDS011;23548;51.196;6.838;2023-07-13T13:53:13;8.82;;;1.98;;
37701;SDS011;23548;51.196;6.838;2023-07-13T13:55:40;9.07;;;2.03;;
37701;SDS011;23548;51.196;6.838;2023-07-13T13:58:07;3.25;;;1.60;;
37701;SDS011;23548;51.196;6.838;2023-07-13T14:00:34;5.82;;;1.77;;
37701;SDS011;23548;51.196;6.838;2023-07-13T14:03:01;8.27;;;2.10;;
37701;SDS011;23548;51.196;6.838;2023-07-13T14:05:27;5.28;;;1.90;;
37701;SDS011;23548;51.196;6.838;2023-07-13T14:07:54;4.20;;;1.80;;
37701;SDS011;23548;51.196;6.838;2023-07-13T14:10:21;4.07;;;1.52;;
37701;SDS011;23548;51.196;6.838;2023-07-13T14:12:48;4.13;;;1.65;;
37701;SDS011;23548;51.196;6.838;2023-07-13T14:15:21;4.55;;;1.63;;
37701;SDS011;23548;51.196;6.838;2023-07-13T14:17:56;11.57;;;2.20;;
37701;SDS011;23548;51.196;6.838;2023-07-13T14:20:23;7.20;;;2.05;;
37701;SDS011;23548;51.196;6.838;2023-07-13T14:22:51;4.28;;;1.75;;
37701;SDS011;23548;51.196;6.838;2023-07-13T14:25:18;4.38;;;1.85;;
37701;SDS011;23548;51.196;6.838;2023-07-13T14:27:45;5.07;;;1.70;;
37701;SDS011;23548;51.196;6.838;2023-07-13T14:30:14;5.45;;;1.70;;
37701;SDS011;23548;51.196;6.838;2023-07-13T14:32:41;4.63;;;1.85;;
37701;SDS011;23548;51.196;6.838;2023-07-13T14:35:14;5.10;;;2.15;;
37701;SDS011;23548;51.196;6.838;2023-07-13T14:37:41;6.10;;;2.30;;
37701;SDS011;23548;51.196;6.838;2023-07-13T14:40:18;5.38;;;1.58;;
37701;SDS011;23548;51.196;6.838;2023-07-13T14:42:50;5.85;;;2.00;;
37701;SDS011;23548;51.196;6.838;2023-07-13T14:45:16;5.18;;;2.10;;
37701;SDS011;23548;51.196;6.838;2023-07-13T14:47:43;6.80;;;1.98;;
37701;SDS011;23548;51.196;6.838;2023-07-13T14:50:20;10.48;;;2.10;;
37701;SDS011;23548;51.196;6.838;2023-07-13T14:52:49;8.27;;;1.90;;
37701;SDS011;23548;51.196;6.838;2023-07-13T14:55:16;4.03;;;1.83;;
37701;SDS011;23548;51.196;6.838;2023-07-13T14:57:43;7.05;;;2.20;;
37701;SDS011;23548;51.196;6.838;2023-07-13T15:00:14;10.23;;;2.72;;
37701;SDS011;23548;51.196;6.838;2023-07-13T15:02:42;8.35;;;2.70;;
37701;SDS011;23548;51.196;6.838;2023-07-13T15:05:20;7.75;;;3.47;;
37701;SDS011;23548;51.196;6.838;2023-07-13T15:07:49;18.75;;;4.53;;
37701;SDS011;23548;51.196;6.838;2023-07-13T15:12:46;10.85;;;4.55;;
37701;SDS011;23548;51.196;6.838;2023-07-13T15:15:13;17.52;;;4.80;;
37701;SDS011;23548;51.196;6.838;2023-07-13T15:20:19;9.75;;;4.18;;
37701;SDS011;23548;51.196;6.838;2023-07-13T15:22:50;10.90;;;4.30;;
37701;SDS011;23548;51.196;6.838;2023-07-13T15:25:18;9.38;;;3.80;;
37701;SDS011;23548;51.196;6.838;2023-07-13T15:27:49;10.95;;;4.10;;
37701;SDS011;23548;51.196;6.838;2023-07-13T15:30:15;8.40;;;5.15;;
37701;SDS011;23548;51.196;6.838;2023-07-13T15:32:42;7.80;;;3.92;;
37701;SDS011;23548;51.196;6.838;2023-07-13T15:37:45;10.98;;;4.38;;
37701;SDS011;23548;51.196;6.838;2023-07-13T15:40:12;5.18;;;3.20;;
37701;SDS011;23548;51.196;6.838;2023-07-13T15:42:39;6.25;;;3.15;;
37701;SDS011;23548;51.196;6.838;2023-07-13T15:47:46;6.55;;;3.22;;
37701;SDS011;23548;51.196;6.838;2023-07-13T15:50:16;5.80;;;2.88;;
37701;SDS011;23548;51.196;6.838;2023-07-13T15:52:44;10.35;;;3.92;;
37701;SDS011;23548;51.196;6.838;2023-07-13T15:55:13;6.88;;;3.88;;
37701;SDS011;23548;51.196;6.838;2023-07-13T15:57:44;6.30;;;3.15;;